Denver, Colorado
Current Conditions -  °F | °C
As of 9:58 AM on Thursday 18 Dec 2014 (Local Time) from KBKF Reporting Station
Broken Clouds Broken Clouds  
Wind Chill: 34°   Ceiling: 22000
Heat Index: 34°   Visibility: 10mi
Dew Point: 31°   Wind: 2mph
Humidity: 90%   Direction: 200°SSW
Pressure: 30.06"   Gusts: NA
Location:  39.74°N, 104.99°W
Report Text: KBKF 181658Z 20002KT 10SM FEW110 BKN220 01/00 A3006 RMK AO2A SLP190 T00091005
Loading
Personal Weather Stations






























Interactive Weather Map New forecast layout! Learn more

10-Day Weather Forecast

Advertisements
Track Severe Weather on mobile